sensor_id;sensor_type;location;lat;lon;timestamp;P1;durP1;ratioP1;P2;durP2;ratioP2
29568;SDS011;16501;51.462;14.346;2022-08-21T00:01:19;32.97;;;24.20;;
29568;SDS011;16501;51.462;14.346;2022-08-21T00:03:47;34.40;;;23.00;;
29568;SDS011;16501;51.462;14.346;2022-08-21T00:06:12;33.50;;;22.27;;
29568;SDS011;16501;51.462;14.346;2022-08-21T00:08:39;36.17;;;23.15;;
29568;SDS011;16501;51.462;14.346;2022-08-21T00:11:04;33.97;;;24.10;;
29568;SDS011;16501;51.462;14.346;2022-08-21T00:13:31;32.67;;;23.55;;
29568;SDS011;16501;51.462;14.346;2022-08-21T00:15:57;36.13;;;22.98;;
29568;SDS011;16501;51.462;14.346;2022-08-21T00:18:24;34.17;;;24.00;;
29568;SDS011;16501;51.462;14.346;2022-08-21T00:20:50;32.90;;;22.55;;
29568;SDS011;16501;51.462;14.346;2022-08-21T00:23:17;34.55;;;22.58;;
29568;SDS011;16501;51.462;14.346;2022-08-21T00:25:43;34.70;;;21.95;;
29568;SDS011;16501;51.462;14.346;2022-08-21T00:28:11;35.60;;;22.83;;
29568;SDS011;16501;51.462;14.346;2022-08-21T00:30:39;32.72;;;23.42;;
29568;SDS011;16501;51.462;14.346;2022-08-21T00:33:05;34.72;;;23.45;;
29568;SDS011;16501;51.462;14.346;2022-08-21T00:35:32;34.05;;;23.65;;
29568;SDS011;16501;51.462;14.346;2022-08-21T00:38:02;34.33;;;23.48;;
29568;SDS011;16501;51.462;14.346;2022-08-21T00:40:35;29.67;;;21.13;;
29568;SDS011;16501;51.462;14.346;2022-08-21T00:43:08;38.78;;;23.50;;
29568;SDS011;16501;51.462;14.346;2022-08-21T00:45:35;30.65;;;22.17;;
29568;SDS011;16501;51.462;14.346;2022-08-21T00:48:01;35.45;;;24.17;;
29568;SDS011;16501;51.462;14.346;2022-08-21T00:50:29;30.27;;;21.60;;
29568;SDS011;16501;51.462;14.346;2022-08-21T00:53:02;31.30;;;23.33;;
29568;SDS011;16501;51.462;14.346;2022-08-21T00:55:30;32.03;;;21.60;;
29568;SDS011;16501;51.462;14.346;2022-08-21T00:57:59;29.95;;;22.35;;
29568;SDS011;16501;51.462;14.346;2022-08-21T01:00:27;30.65;;;22.70;;
29568;SDS011;16501;51.462;14.346;2022-08-21T01:02:56;30.23;;;22.65;;
29568;SDS011;16501;51.462;14.346;2022-08-21T01:05:23;28.88;;;21.52;;
29568;SDS011;16501;51.462;14.346;2022-08-21T01:07:50;26.92;;;20.75;;
29568;SDS011;16501;51.462;14.346;2022-08-21T01:10:16;30.05;;;21.95;;
29568;SDS011;16501;51.462;14.346;2022-08-21T01:12:42;29.23;;;20.02;;
29568;SDS011;16501;51.462;14.346;2022-08-21T01:15:09;26.30;;;19.70;;
29568;SDS011;16501;51.462;14.346;2022-08-21T01:17:36;28.33;;;21.90;;
29568;SDS011;16501;51.462;14.346;2022-08-21T01:20:04;29.10;;;19.85;;
29568;SDS011;16501;51.462;14.346;2022-08-21T01:22:32;29.40;;;20.73;;
29568;SDS011;16501;51.462;14.346;2022-08-21T01:24:57;31.92;;;21.23;;
29568;SDS011;16501;51.462;14.346;2022-08-21T01:27:23;29.70;;;20.80;;
29568;SDS011;16501;51.462;14.346;2022-08-21T01:29:51;32.80;;;21.90;;
29568;SDS011;16501;51.462;14.346;2022-08-21T01:32:56;28.48;;;20.48;;
29568;SDS011;16501;51.462;14.346;2022-08-21T01:35:21;30.35;;;19.58;;
29568;SDS011;16501;51.462;14.346;2022-08-21T01:37:47;27.10;;;19.60;;
29568;SDS011;16501;51.462;14.346;2022-08-21T01:40:13;27.92;;;19.25;;
29568;SDS011;16501;51.462;14.346;2022-08-21T01:42:41;23.13;;;17.92;;
29568;SDS011;16501;51.462;14.346;2022-08-21T01:45:07;26.88;;;19.02;;
29568;SDS011;16501;51.462;14.346;2022-08-21T01:47:33;22.58;;;17.52;;
29568;SDS011;16501;51.462;14.346;2022-08-21T01:49:58;28.33;;;17.40;;
29568;SDS011;16501;51.462;14.346;2022-08-21T01:52:25;20.27;;;16.48;;
29568;SDS011;16501;51.462;14.346;2022-08-21T01:54:50;27.63;;;18.50;;
29568;SDS011;16501;51.462;14.346;2022-08-21T01:57:16;21.15;;;16.85;;
29568;SDS011;16501;51.462;14.346;2022-08-21T01:59:41;24.17;;;17.02;;
29568;SDS011;16501;51.462;14.346;2022-08-21T02:02:07;22.40;;;17.30;;
29568;SDS011;16501;51.462;14.346;2022-08-21T02:04:32;24.80;;;17.30;;
29568;SDS011;16501;51.462;14.346;2022-08-21T02:06:58;24.75;;;18.10;;
29568;SDS011;16501;51.462;14.346;2022-08-21T02:09:24;28.10;;;17.45;;
29568;SDS011;16501;51.462;14.346;2022-08-21T02:12:10;26.35;;;17.75;;
29568;SDS011;16501;51.462;14.346;2022-08-21T02:14:36;25.75;;;18.42;;
29568;SDS011;16501;51.462;14.346;2022-08-21T02:17:01;25.58;;;17.63;;
29568;SDS011;16501;51.462;14.346;2022-08-21T02:19:27;28.40;;;18.13;;
29568;SDS011;16501;51.462;14.346;2022-08-21T02:21:53;30.52;;;20.58;;
29568;SDS011;16501;51.462;14.346;2022-08-21T02:24:18;27.33;;;19.48;;
29568;SDS011;16501;51.462;14.346;2022-08-21T02:26:43;26.17;;;19.60;;
29568;SDS011;16501;51.462;14.346;2022-08-21T02:29:08;26.60;;;20.20;;
29568;SDS011;16501;51.462;14.346;2022-08-21T02:31:34;27.27;;;19.73;;
29568;SDS011;16501;51.462;14.346;2022-08-21T02:33:59;35.08;;;21.00;;
29568;SDS011;16501;51.462;14.346;2022-08-21T02:36:26;27.10;;;19.50;;
29568;SDS011;16501;51.462;14.346;2022-08-21T02:38:52;26.92;;;18.95;;
29568;SDS011;16501;51.462;14.346;2022-08-21T02:41:18;26.35;;;18.45;;
29568;SDS011;16501;51.462;14.346;2022-08-21T02:43:45;23.83;;;17.40;;
29568;SDS011;16501;51.462;14.346;2022-08-21T02:46:12;25.00;;;17.73;;
29568;SDS011;16501;51.462;14.346;2022-08-21T02:48:39;25.20;;;16.83;;
29568;SDS011;16501;51.462;14.346;2022-08-21T02:51:09;29.35;;;17.02;;
29568;SDS011;16501;51.462;14.346;2022-08-21T02:53:36;23.73;;;17.55;;
29568;SDS011;16501;51.462;14.346;2022-08-21T02:56:03;23.70;;;17.48;;
29568;SDS011;16501;51.462;14.346;2022-08-21T02:58:31;21.23;;;17.13;;
29568;SDS011;16501;51.462;14.346;2022-08-21T03:00:59;24.52;;;16.95;;
29568;SDS011;16501;51.462;14.346;2022-08-21T03:03:25;24.17;;;16.35;;
29568;SDS011;16501;51.462;14.346;2022-08-21T03:05:52;22.48;;;15.65;;
29568;SDS011;16501;51.462;14.346;2022-08-21T03:08:18;23.05;;;16.17;;
29568;SDS011;16501;51.462;14.346;2022-08-21T03:10:46;19.83;;;15.52;;
29568;SDS011;16501;51.462;14.346;2022-08-21T03:13:14;27.50;;;15.88;;
29568;SDS011;16501;51.462;14.346;2022-08-21T03:15:42;22.52;;;16.63;;
29568;SDS011;16501;51.462;14.346;2022-08-21T03:18:09;25.20;;;16.70;;
29568;SDS011;16501;51.462;14.346;2022-08-21T03:20:35;23.77;;;17.27;;
29568;SDS011;16501;51.462;14.346;2022-08-21T03:23:02;24.38;;;18.52;;
29568;SDS011;16501;51.462;14.346;2022-08-21T03:25:29;24.92;;;17.25;;
29568;SDS011;16501;51.462;14.346;2022-08-21T03:27:59;24.77;;;17.52;;
29568;SDS011;16501;51.462;14.346;2022-08-21T03:30:29;22.38;;;16.50;;
29568;SDS011;16501;51.462;14.346;2022-08-21T03:32:56;24.98;;;16.70;;
29568;SDS011;16501;51.462;14.346;2022-08-21T03:35:22;23.67;;;16.08;;
29568;SDS011;16501;51.462;14.346;2022-08-21T03:37:47;31.00;;;17.25;;
29568;SDS011;16501;51.462;14.346;2022-08-21T03:40:13;21.00;;;16.23;;
29568;SDS011;16501;51.462;14.346;2022-08-21T03:42:40;25.17;;;15.30;;
29568;SDS011;16501;51.462;14.346;2022-08-21T03:45:06;23.13;;;15.40;;
29568;SDS011;16501;51.462;14.346;2022-08-21T03:47:33;21.98;;;13.93;;
29568;SDS011;16501;51.462;14.346;2022-08-21T03:49:59;17.88;;;13.80;;
29568;SDS011;16501;51.462;14.346;2022-08-21T03:52:25;21.42;;;14.57;;
29568;SDS011;16501;51.462;14.346;2022-08-21T03:54:50;19.92;;;13.77;;
29568;SDS011;16501;51.462;14.346;2022-08-21T03:57:16;18.38;;;13.18;;
29568;SDS011;16501;51.462;14.346;2022-08-21T03:59:41;19.27;;;14.27;;
29568;SDS011;16501;51.462;14.346;2022-08-21T04:02:08;17.98;;;13.52;;
29568;SDS011;16501;51.462;14.346;2022-08-21T04:04:34;18.45;;;13.75;;
29568;SDS011;16501;51.462;14.346;2022-08-21T04:07:00;19.45;;;13.55;;
29568;SDS011;16501;51.462;14.346;2022-08-21T04:09:26;15.63;;;12.40;;
29568;SDS011;16501;51.462;14.346;2022-08-21T04:11:52;19.67;;;14.05;;
29568;SDS011;16501;51.462;14.346;2022-08-21T04:14:18;18.33;;;12.55;;
29568;SDS011;16501;51.462;14.346;2022-08-21T04:16:44;16.15;;;12.18;;
29568;SDS011;16501;51.462;14.346;2022-08-21T04:19:11;19.98;;;14.20;;
29568;SDS011;16501;51.462;14.346;2022-08-21T04:21:38;16.80;;;12.70;;
29568;SDS011;16501;51.462;14.346;2022-08-21T04:24:04;17.23;;;12.30;;
29568;SDS011;16501;51.462;14.346;2022-08-21T04:26:33;19.52;;;13.43;;
29568;SDS011;16501;51.462;14.346;2022-08-21T04:29:00;15.50;;;11.30;;
29568;SDS011;16501;51.462;14.346;2022-08-21T04:31:26;17.77;;;12.43;;
29568;SDS011;16501;51.462;14.346;2022-08-21T04:33:52;17.30;;;12.40;;
29568;SDS011;16501;51.462;14.346;2022-08-21T04:36:18;17.20;;;12.02;;
29568;SDS011;16501;51.462;14.346;2022-08-21T04:38:44;15.80;;;11.63;;
29568;SDS011;16501;51.462;14.346;2022-08-21T04:41:10;29.90;;;11.95;;
29568;SDS011;16501;51.462;14.346;2022-08-21T04:43:36;16.90;;;11.68;;
29568;SDS011;16501;51.462;14.346;2022-08-21T04:46:02;13.75;;;11.07;;
29568;SDS011;16501;51.462;14.346;2022-08-21T04:48:28;16.45;;;11.45;;
29568;SDS011;16501;51.462;14.346;2022-08-21T04:51:06;20.08;;;11.38;;
29568;SDS011;16501;51.462;14.346;2022-08-21T04:56:06;15.23;;;10.80;;
29568;SDS011;16501;51.462;14.346;2022-08-21T04:58:43;17.98;;;11.63;;
29568;SDS011;16501;51.462;14.346;2022-08-21T05:01:11;13.02;;;11.23;;
29568;SDS011;16501;51.462;14.346;2022-08-21T05:03:42;14.88;;;10.68;;
29568;SDS011;16501;51.462;14.346;2022-08-21T05:06:10;19.13;;;12.05;;
29568;SDS011;16501;51.462;14.346;2022-08-21T05:08:37;15.90;;;11.32;;
29568;SDS011;16501;51.462;14.346;2022-08-21T05:11:04;16.10;;;11.65;;
29568;SDS011;16501;51.462;14.346;2022-08-21T05:13:31;14.73;;;11.15;;
29568;SDS011;16501;51.462;14.346;2022-08-21T05:15:56;18.70;;;11.57;;
29568;SDS011;16501;51.462;14.346;2022-08-21T05:18:22;16.02;;;11.38;;
29568;SDS011;16501;51.462;14.346;2022-08-21T05:20:47;17.98;;;12.15;;
29568;SDS011;16501;51.462;14.346;2022-08-21T05:23:14;16.88;;;11.70;;
29568;SDS011;16501;51.462;14.346;2022-08-21T05:25:40;17.42;;;12.88;;
29568;SDS011;16501;51.462;14.346;2022-08-21T05:28:06;16.05;;;11.75;;
29568;SDS011;16501;51.462;14.346;2022-08-21T05:30:33;14.50;;;10.43;;
29568;SDS011;16501;51.462;14.346;2022-08-21T05:33:00;16.90;;;12.18;;
29568;SDS011;16501;51.462;14.346;2022-08-21T05:35:28;15.77;;;12.13;;
29568;SDS011;16501;51.462;14.346;2022-08-21T05:37:54;17.77;;;12.93;;
29568;SDS011;16501;51.462;14.346;2022-08-21T05:40:20;17.02;;;13.18;;
29568;SDS011;16501;51.462;14.346;2022-08-21T05:42:46;21.95;;;12.75;;
29568;SDS011;16501;51.462;14.346;2022-08-21T05:45:11;14.90;;;11.68;;
29568;SDS011;16501;51.462;14.346;2022-08-21T05:47:37;16.35;;;11.95;;
29568;SDS011;16501;51.462;14.346;2022-08-21T05:50:03;19.60;;;12.02;;
29568;SDS011;16501;51.462;14.346;2022-08-21T05:52:28;18.42;;;12.88;;
29568;SDS011;16501;51.462;14.346;2022-08-21T05:54:54;26.38;;;12.57;;
29568;SDS011;16501;51.462;14.346;2022-08-21T05:57:20;20.48;;;12.43;;
29568;SDS011;16501;51.462;14.346;2022-08-21T05:59:46;16.58;;;12.73;;
29568;SDS011;16501;51.462;14.346;2022-08-21T06:02:12;17.05;;;12.68;;
29568;SDS011;16501;51.462;14.346;2022-08-21T06:04:38;18.10;;;12.57;;
29568;SDS011;16501;51.462;14.346;2022-08-21T06:07:04;17.20;;;13.55;;
29568;SDS011;16501;51.462;14.346;2022-08-21T06:09:30;18.30;;;12.00;;
29568;SDS011;16501;51.462;14.346;2022-08-21T06:11:56;18.98;;;12.20;;
29568;SDS011;16501;51.462;14.346;2022-08-21T06:14:22;21.63;;;12.68;;
29568;SDS011;16501;51.462;14.346;2022-08-21T06:16:47;20.85;;;12.75;;
29568;SDS011;16501;51.462;14.346;2022-08-21T06:19:12;19.63;;;13.45;;
29568;SDS011;16501;51.462;14.346;2022-08-21T06:21:37;18.58;;;13.75;;
29568;SDS011;16501;51.462;14.346;2022-08-21T06:24:03;18.33;;;12.88;;
29568;SDS011;16501;51.462;14.346;2022-08-21T06:26:29;16.42;;;12.73;;
29568;SDS011;16501;51.462;14.346;2022-08-21T06:28:55;19.92;;;13.27;;
29568;SDS011;16501;51.462;14.346;2022-08-21T06:31:22;18.25;;;12.98;;
29568;SDS011;16501;51.462;14.346;2022-08-21T06:33:50;18.08;;;11.68;;
29568;SDS011;16501;51.462;14.346;2022-08-21T06:36:15;14.45;;;10.20;;
29568;SDS011;16501;51.462;14.346;2022-08-21T06:38:41;14.48;;;10.25;;
29568;SDS011;16501;51.462;14.346;2022-08-21T06:41:07;19.80;;;10.70;;
29568;SDS011;16501;51.462;14.346;2022-08-21T06:43:33;16.90;;;11.10;;
29568;SDS011;16501;51.462;14.346;2022-08-21T06:45:58;18.30;;;9.95;;
29568;SDS011;16501;51.462;14.346;2022-08-21T06:48:24;19.13;;;10.80;;
29568;SDS011;16501;51.462;14.346;2022-08-21T06:50:49;13.25;;;9.90;;
29568;SDS011;16501;51.462;14.346;2022-08-21T06:53:16;18.95;;;11.65;;
29568;SDS011;16501;51.462;14.346;2022-08-21T06:55:44;16.50;;;10.43;;
29568;SDS011;16501;51.462;14.346;2022-08-21T06:58:10;20.38;;;10.30;;
29568;SDS011;16501;51.462;14.346;2022-08-21T07:00:38;14.10;;;9.65;;
29568;SDS011;16501;51.462;14.346;2022-08-21T07:03:05;13.55;;;10.80;;
29568;SDS011;16501;51.462;14.346;2022-08-21T07:05:32;13.20;;;9.57;;
29568;SDS011;16501;51.462;14.346;2022-08-21T07:07:57;19.40;;;9.57;;
29568;SDS011;16501;51.462;14.346;2022-08-21T07:10:24;20.85;;;10.35;;
29568;SDS011;16501;51.462;14.346;2022-08-21T07:12:50;14.13;;;10.02;;
29568;SDS011;16501;51.462;14.346;2022-08-21T07:15:17;19.35;;;10.82;;
29568;SDS011;16501;51.462;14.346;2022-08-21T07:17:44;17.05;;;9.90;;
29568;SDS011;16501;51.462;14.346;2022-08-21T07:20:09;12.98;;;10.05;;
29568;SDS011;16501;51.462;14.346;2022-08-21T07:22:35;19.48;;;9.88;;
29568;SDS011;16501;51.462;14.346;2022-08-21T07:25:03;10.90;;;9.68;;
29568;SDS011;16501;51.462;14.346;2022-08-21T07:27:29;11.25;;;9.05;;
29568;SDS011;16501;51.462;14.346;2022-08-21T07:29:54;17.50;;;8.93;;
29568;SDS011;16501;51.462;14.346;2022-08-21T07:32:20;10.88;;;8.32;;
29568;SDS011;16501;51.462;14.346;2022-08-21T07:34:46;14.77;;;8.55;;
29568;SDS011;16501;51.462;14.346;2022-08-21T07:37:11;21.15;;;10.18;;
29568;SDS011;16501;51.462;14.346;2022-08-21T07:39:36;14.43;;;8.98;;
29568;SDS011;16501;51.462;14.346;2022-08-21T07:42:02;13.23;;;8.48;;
29568;SDS011;16501;51.462;14.346;2022-08-21T07:44:28;15.80;;;9.40;;
29568;SDS011;16501;51.462;14.346;2022-08-21T07:46:53;11.30;;;8.45;;
29568;SDS011;16501;51.462;14.346;2022-08-21T07:49:18;15.50;;;7.80;;
29568;SDS011;16501;51.462;14.346;2022-08-21T07:51:44;14.25;;;8.25;;
29568;SDS011;16501;51.462;14.346;2022-08-21T07:54:09;10.02;;;7.55;;
29568;SDS011;16501;51.462;14.346;2022-08-21T07:56:35;12.65;;;8.02;;
29568;SDS011;16501;51.462;14.346;2022-08-21T07:59:01;13.40;;;7.95;;
29568;SDS011;16501;51.462;14.346;2022-08-21T08:01:27;14.40;;;7.82;;
29568;SDS011;16501;51.462;14.346;2022-08-21T08:03:53;11.20;;;7.93;;
29568;SDS011;16501;51.462;14.346;2022-08-21T08:06:18;11.70;;;7.20;;
29568;SDS011;16501;51.462;14.346;2022-08-21T08:08:44;15.10;;;7.22;;
29568;SDS011;16501;51.462;14.346;2022-08-21T08:11:10;11.00;;;7.22;;
29568;SDS011;16501;51.462;14.346;2022-08-21T08:13:39;11.82;;;7.15;;
29568;SDS011;16501;51.462;14.346;2022-08-21T08:16:06;16.40;;;7.90;;
29568;SDS011;16501;51.462;14.346;2022-08-21T08:18:31;9.63;;;6.47;;
29568;SDS011;16501;51.462;14.346;2022-08-21T08:20:57;13.85;;;6.10;;
29568;SDS011;16501;51.462;14.346;2022-08-21T08:23:22;15.63;;;7.50;;
29568;SDS011;16501;51.462;14.346;2022-08-21T08:25:48;11.10;;;6.00;;
29568;SDS011;16501;51.462;14.346;2022-08-21T08:28:13;14.43;;;6.18;;
29568;SDS011;16501;51.462;14.346;2022-08-21T08:30:38;16.88;;;6.15;;
29568;SDS011;16501;51.462;14.346;2022-08-21T08:33:04;10.30;;;6.68;;
29568;SDS011;16501;51.462;14.346;2022-08-21T08:35:29;11.65;;;6.53;;
29568;SDS011;16501;51.462;14.346;2022-08-21T08:37:54;9.20;;;6.05;;
29568;SDS011;16501;51.462;14.346;2022-08-21T08:40:35;9.85;;;6.05;;
29568;SDS011;16501;51.462;14.346;2022-08-21T08:43:06;12.68;;;6.53;;
29568;SDS011;16501;51.462;14.346;2022-08-21T08:45:32;11.30;;;5.40;;
29568;SDS011;16501;51.462;14.346;2022-08-21T08:48:03;8.32;;;4.82;;
29568;SDS011;16501;51.462;14.346;2022-08-21T08:50:39;12.18;;;4.90;;
29568;SDS011;16501;51.462;14.346;2022-08-21T08:53:10;8.15;;;4.47;;
29568;SDS011;16501;51.462;14.346;2022-08-21T08:55:40;8.18;;;4.00;;
29568;SDS011;16501;51.462;14.346;2022-08-21T08:58:19;8.57;;;3.20;;
29568;SDS011;16501;51.462;14.346;2022-08-21T09:03:17;12.00;;;3.67;;
29568;SDS011;16501;51.462;14.346;2022-08-21T09:05:48;8.73;;;3.88;;
29568;SDS011;16501;51.462;14.346;2022-08-21T09:08:29;8.85;;;3.03;;
29568;SDS011;16501;51.462;14.346;2022-08-21T09:11:13;6.15;;;3.22;;
29568;SDS011;16501;51.462;14.346;2022-08-21T09:17:12;9.63;;;3.33;;
29568;SDS011;16501;51.462;14.346;2022-08-21T09:28:16;6.95;;;2.67;;
29568;SDS011;16501;51.462;14.346;2022-08-21T09:30:41;9.43;;;2.40;;
29568;SDS011;16501;51.462;14.346;2022-08-21T09:33:07;7.57;;;2.80;;
29568;SDS011;16501;51.462;14.346;2022-08-21T09:35:34;7.97;;;2.67;;
29568;SDS011;16501;51.462;14.346;2022-08-21T09:38:04;8.35;;;2.35;;
29568;SDS011;16501;51.462;14.346;2022-08-21T09:45:37;4.03;;;2.45;;
29568;SDS011;16501;51.462;14.346;2022-08-21T09:48:14;6.13;;;2.45;;
29568;SDS011;16501;51.462;14.346;2022-08-21T09:50:48;6.47;;;2.30;;
29568;SDS011;16501;51.462;14.346;2022-08-21T09:53:21;5.88;;;2.13;;
29568;SDS011;16501;51.462;14.346;2022-08-21T09:55:59;6.60;;;2.13;;
29568;SDS011;16501;51.462;14.346;2022-08-21T09:58:46;7.10;;;2.30;;
29568;SDS011;16501;51.462;14.346;2022-08-21T10:01:23;10.00;;;2.40;;
29568;SDS011;16501;51.462;14.346;2022-08-21T10:04:01;5.95;;;1.70;;
29568;SDS011;16501;51.462;14.346;2022-08-21T10:06:28;9.52;;;2.83;;
29568;SDS011;16501;51.462;14.346;2022-08-21T10:09:04;10.98;;;1.77;;
29568;SDS011;16501;51.462;14.346;2022-08-21T10:11:32;6.50;;;1.88;;
29568;SDS011;16501;51.462;14.346;2022-08-21T10:14:03;10.07;;;2.28;;
29568;SDS011;16501;51.462;14.346;2022-08-21T10:19:15;4.68;;;2.28;;
29568;SDS011;16501;51.462;14.346;2022-08-21T10:21:56;5.63;;;2.17;;
29568;SDS011;16501;51.462;14.346;2022-08-21T10:24:58;4.63;;;2.22;;
29568;SDS011;16501;51.462;14.346;2022-08-21T10:27:47;6.45;;;2.25;;
29568;SDS011;16501;51.462;14.346;2022-08-21T10:30:24;6.93;;;1.77;;
29568;SDS011;16501;51.462;14.346;2022-08-21T10:33:08;5.97;;;1.88;;
29568;SDS011;16501;51.462;14.346;2022-08-21T10:36:02;7.07;;;1.65;;
29568;SDS011;16501;51.462;14.346;2022-08-21T10:38:54;7.65;;;2.10;;
29568;SDS011;16501;51.462;14.346;2022-08-21T10:47:18;13.10;;;1.90;;
29568;SDS011;16501;51.462;14.346;2022-08-21T10:52:49;9.65;;;2.05;;
29568;SDS011;16501;51.462;14.346;2022-08-21T10:55:38;6.88;;;2.00;;
29568;SDS011;16501;51.462;14.346;2022-08-21T10:58:14;6.93;;;2.17;;
29568;SDS011;16501;51.462;14.346;2022-08-21T11:00:46;8.35;;;2.03;;
29568;SDS011;16501;51.462;14.346;2022-08-21T11:03:39;4.38;;;2.00;;
29568;SDS011;16501;51.462;14.346;2022-08-21T11:06:25;5.88;;;1.75;;
29568;SDS011;16501;51.462;14.346;2022-08-21T11:08:53;10.23;;;1.70;;
29568;SDS011;16501;51.462;14.346;2022-08-21T11:11:28;7.65;;;1.85;;
29568;SDS011;16501;51.462;14.346;2022-08-21T11:16:48;5.80;;;2.10;;
29568;SDS011;16501;51.462;14.346;2022-08-21T11:19:25;9.32;;;1.98;;
29568;SDS011;16501;51.462;14.346;2022-08-21T11:22:18;8.27;;;2.00;;
29568;SDS011;16501;51.462;14.346;2022-08-21T11:25:00;8.20;;;2.00;;
29568;SDS011;16501;51.462;14.346;2022-08-21T11:30:27;5.75;;;1.80;;
29568;SDS011;16501;51.462;14.346;2022-08-21T11:38:27;4.00;;;1.60;;
29568;SDS011;16501;51.462;14.346;2022-08-21T11:41:02;10.00;;;2.00;;
29568;SDS011;16501;51.462;14.346;2022-08-21T11:43:43;7.50;;;1.65;;
29568;SDS011;16501;51.462;14.346;2022-08-21T11:49:20;6.95;;;2.00;;
29568;SDS011;16501;51.462;14.346;2022-08-21T11:54:51;8.32;;;2.20;;
29568;SDS011;16501;51.462;14.346;2022-08-21T11:57:26;4.97;;;2.25;;
29568;SDS011;16501;51.462;14.346;2022-08-21T12:03:05;6.07;;;1.83;;
29568;SDS011;16501;51.462;14.346;2022-08-21T12:05:36;6.30;;;2.03;;
29568;SDS011;16501;51.462;14.346;2022-08-21T12:08:10;11.65;;;1.98;;
29568;SDS011;16501;51.462;14.346;2022-08-21T12:10:38;8.40;;;2.30;;
29568;SDS011;16501;51.462;14.346;2022-08-21T12:13:06;5.10;;;1.80;;
29568;SDS011;16501;51.462;14.346;2022-08-21T12:15:34;5.10;;;1.75;;
29568;SDS011;16501;51.462;14.346;2022-08-21T12:18:00;4.68;;;1.65;;
29568;SDS011;16501;51.462;14.346;2022-08-21T12:23:16;2.63;;;1.80;;
29568;SDS011;16501;51.462;14.346;2022-08-21T12:25:43;4.10;;;1.65;;
29568;SDS011;16501;51.462;14.346;2022-08-21T12:28:28;7.03;;;1.90;;
29568;SDS011;16501;51.462;14.346;2022-08-21T12:30:55;7.70;;;2.00;;
29568;SDS011;16501;51.462;14.346;2022-08-21T12:33:35;5.85;;;2.15;;
29568;SDS011;16501;51.462;14.346;2022-08-21T12:38:50;6.05;;;2.20;;
29568;SDS011;16501;51.462;14.346;2022-08-21T12:44:28;6.72;;;2.10;;
29568;SDS011;16501;51.462;14.346;2022-08-21T12:47:03;5.22;;;1.60;;
29568;SDS011;16501;51.462;14.346;2022-08-21T12:49:52;3.40;;;1.60;;
29568;SDS011;16501;51.462;14.346;2022-08-21T12:52:27;6.35;;;1.83;;
29568;SDS011;16501;51.462;14.346;2022-08-21T12:55:14;6.03;;;2.13;;
29568;SDS011;16501;51.462;14.346;2022-08-21T12:57:41;2.72;;;1.40;;
29568;SDS011;16501;51.462;14.346;2022-08-21T13:00:08;4.53;;;2.20;;
29568;SDS011;16501;51.462;14.346;2022-08-21T13:02:38;6.55;;;1.75;;
29568;SDS011;16501;51.462;14.346;2022-08-21T13:05:11;3.58;;;1.83;;
29568;SDS011;16501;51.462;14.346;2022-08-21T13:07:42;4.87;;;1.70;;
29568;SDS011;16501;51.462;14.346;2022-08-21T13:10:23;2.93;;;1.80;;
29568;SDS011;16501;51.462;14.346;2022-08-21T13:12:53;13.05;;;2.30;;
29568;SDS011;16501;51.462;14.346;2022-08-21T13:15:25;7.22;;;1.98;;
29568;SDS011;16501;51.462;14.346;2022-08-21T13:17:54;5.40;;;1.88;;
29568;SDS011;16501;51.462;14.346;2022-08-21T13:20:20;2.47;;;1.70;;
29568;SDS011;16501;51.462;14.346;2022-08-21T13:22:49;5.45;;;2.28;;
29568;SDS011;16501;51.462;14.346;2022-08-21T13:25:16;5.55;;;1.80;;
29568;SDS011;16501;51.462;14.346;2022-08-21T13:27:45;6.32;;;2.15;;
29568;SDS011;16501;51.462;14.346;2022-08-21T13:30:23;10.82;;;1.77;;
29568;SDS011;16501;51.462;14.346;2022-08-21T13:32:49;5.80;;;2.22;;
29568;SDS011;16501;51.462;14.346;2022-08-21T13:38:15;4.45;;;1.83;;
29568;SDS011;16501;51.462;14.346;2022-08-21T13:40:44;4.35;;;1.50;;
29568;SDS011;16501;51.462;14.346;2022-08-21T13:45:43;5.18;;;1.80;;
29568;SDS011;16501;51.462;14.346;2022-08-21T13:48:12;2.83;;;1.60;;
29568;SDS011;16501;51.462;14.346;2022-08-21T13:50:37;7.15;;;2.13;;
29568;SDS011;16501;51.462;14.346;2022-08-21T13:53:05;8.73;;;1.60;;
29568;SDS011;16501;51.462;14.346;2022-08-21T13:55:43;4.20;;;1.83;;
29568;SDS011;16501;51.462;14.346;2022-08-21T13:58:09;3.63;;;1.55;;
29568;SDS011;16501;51.462;14.346;2022-08-21T14:00:46;4.90;;;1.70;;
29568;SDS011;16501;51.462;14.346;2022-08-21T14:03:26;4.20;;;1.80;;
29568;SDS011;16501;51.462;14.346;2022-08-21T14:05:57;4.50;;;1.40;;
29568;SDS011;16501;51.462;14.346;2022-08-21T14:10:57;2.45;;;1.33;;
29568;SDS011;16501;51.462;14.346;2022-08-21T14:13:28;7.53;;;1.88;;
29568;SDS011;16501;51.462;14.346;2022-08-21T14:15:59;2.83;;;1.77;;
29568;SDS011;16501;51.462;14.346;2022-08-21T14:18:27;5.55;;;1.67;;
29568;SDS011;16501;51.462;14.346;2022-08-21T14:21:03;7.55;;;1.85;;
29568;SDS011;16501;51.462;14.346;2022-08-21T14:23:30;5.97;;;1.55;;
29568;SDS011;16501;51.462;14.346;2022-08-21T14:25:58;3.67;;;1.65;;
29568;SDS011;16501;51.462;14.346;2022-08-21T14:28:26;6.93;;;1.50;;
29568;SDS011;16501;51.462;14.346;2022-08-21T14:30:56;4.50;;;1.80;;
29568;SDS011;16501;51.462;14.346;2022-08-21T14:33:26;4.45;;;1.45;;
29568;SDS011;16501;51.462;14.346;2022-08-21T14:35:53;4.75;;;1.88;;
29568;SDS011;16501;51.462;14.346;2022-08-21T14:38:20;11.38;;;2.00;;
29568;SDS011;16501;51.462;14.346;2022-08-21T14:40:53;8.52;;;1.58;;
29568;SDS011;16501;51.462;14.346;2022-08-21T14:43:22;4.70;;;1.70;;
29568;SDS011;16501;51.462;14.346;2022-08-21T14:45:51;3.95;;;1.60;;
29568;SDS011;16501;51.462;14.346;2022-08-21T14:48:16;5.80;;;2.10;;
29568;SDS011;16501;51.462;14.346;2022-08-21T14:50:41;3.53;;;1.55;;
29568;SDS011;16501;51.462;14.346;2022-08-21T14:53:07;5.68;;;1.65;;
29568;SDS011;16501;51.462;14.346;2022-08-21T14:55:33;4.93;;;1.77;;
29568;SDS011;16501;51.462;14.346;2022-08-21T14:58:19;4.88;;;2.78;;
29568;SDS011;16501;51.462;14.346;2022-08-21T15:00:44;4.25;;;2.05;;
29568;SDS011;16501;51.462;14.346;2022-08-21T15:03:10;5.30;;;2.25;;
29568;SDS011;16501;51.462;14.346;2022-08-21T15:05:35;4.75;;;1.67;;
29568;SDS011;16501;51.462;14.346;2022-08-21T15:08:00;3.90;;;1.65;;
29568;SDS011;16501;51.462;14.346;2022-08-21T15:10:26;4.15;;;2.17;;
29568;SDS011;16501;51.462;14.346;2022-08-21T15:12:53;7.30;;;1.50;;
29568;SDS011;16501;51.462;14.346;2022-08-21T15:15:18;9.75;;;2.15;;
29568;SDS011;16501;51.462;14.346;2022-08-21T15:17:44;10.02;;;2.03;;
29568;SDS011;16501;51.462;14.346;2022-08-21T15:20:09;3.95;;;1.75;;
29568;SDS011;16501;51.462;14.346;2022-08-21T15:22:35;2.83;;;1.40;;
29568;SDS011;16501;51.462;14.346;2022-08-21T15:25:00;5.93;;;1.23;;
29568;SDS011;16501;51.462;14.346;2022-08-21T15:27:27;3.42;;;1.70;;
29568;SDS011;16501;51.462;14.346;2022-08-21T15:29:54;6.97;;;2.03;;
29568;SDS011;16501;51.462;14.346;2022-08-21T15:32:22;4.90;;;1.55;;
29568;SDS011;16501;51.462;14.346;2022-08-21T15:34:51;7.28;;;1.75;;
29568;SDS011;16501;51.462;14.346;2022-08-21T15:37:17;4.50;;;1.88;;
29568;SDS011;16501;51.462;14.346;2022-08-21T15:39:43;7.97;;;1.98;;
29568;SDS011;16501;51.462;14.346;2022-08-21T15:42:09;3.40;;;1.35;;